CYWK

Wabush Airport

Wabush, Canada
METAR CYWK 231400Z 33004KT 280V060 15SM FEW030 M01/M10 A2997 RMK CF1 SLP183
Observed Flight Rules
May-23 @ 14:00 UTC (an hour ago) Visual Flight Rules
Wind Visibility Clouds
330° at 4 knots 15 miles
  • Few at 3,000' AGL
Temperatures Readings
Current -1°C / 30°F
Dewpoint -10°C / 14°F
Humidity 51%
Altimeter 29.97" Hg
Pressure 1018.3 hPa
Elevation 551
METAR CYWK 231400Z 33004KT 280V060 15SM FEW030 M01/M10 A2997 RMK CF1 SLP183
Observed Flight Rules
May-23 @ 14:00 UTC
(an hour ago)
VFR
Wind Visibility
330° at 4 knots 15 miles
Clouds
  • Few at 3,000' AGL
Temperature Dewpoint
-1°C / 30°F -10°C / 14°F
Humidity Altimeter Pressure
51% 29.97" Hg 1018.3 hPa